Terminal Aerodrome Forecast
Issued by NWS

Home | Current Version | Previous Version | Graphics & Text | Print | Product List | Glossary On
Versions: 1 2 3 4 5 6 7 8 9 10 11 12 13 14 15 16 17 18 19 20 21 22 23 24 25 26 27
000
FTUS43 KBIS 142333
TAFJMS
TAF
KJMS 142333Z 1500/1524 31010KT P6SM OVC040
     FM150500 29006KT P6SM OVC030
     FM150800 29007KT P6SM OVC015
     FM151000 28006KT P6SM OVC020
     FM151600 22007KT P6SM OVC045=

USA.gov is the U.S. government's official web portal to all federal, state and local government web resources and services.